sensor_id;sensor_type;location;lat;lon;timestamp;temperature;humidity
45843;DHT22;31563;51.744;8.252;2022-07-03T00:00:04;29.30;37.70
45843;DHT22;31563;51.744;8.252;2022-07-03T00:02:32;29.20;37.00
45843;DHT22;31563;51.744;8.252;2022-07-03T00:05:01;29.20;37.00
45843;DHT22;31563;51.744;8.252;2022-07-03T00:07:30;29.20;37.10
45843;DHT22;31563;51.744;8.252;2022-07-03T00:09:58;29.20;37.10
45843;DHT22;31563;51.744;8.252;2022-07-03T00:12:26;29.10;37.10
45843;DHT22;31563;51.744;8.252;2022-07-03T00:14:54;29.10;37.20
45843;DHT22;31563;51.744;8.252;2022-07-03T00:17:22;29.10;37.20
45843;DHT22;31563;51.744;8.252;2022-07-03T00:19:51;29.10;37.30
45843;DHT22;31563;51.744;8.252;2022-07-03T00:22:21;29.00;37.30
45843;DHT22;31563;51.744;8.252;2022-07-03T00:24:53;29.00;37.50
45843;DHT22;31563;51.744;8.252;2022-07-03T00:27:24;29.00;37.50
45843;DHT22;31563;51.744;8.252;2022-07-03T00:29:56;29.00;37.50
45843;DHT22;31563;51.744;8.252;2022-07-03T00:32:26;28.90;37.50
45843;DHT22;31563;51.744;8.252;2022-07-03T00:34:56;29.00;37.60
45843;DHT22;31563;51.744;8.252;2022-07-03T00:37:25;28.90;37.60
45843;DHT22;31563;51.744;8.252;2022-07-03T00:39:54;28.90;37.60
45843;DHT22;31563;51.744;8.252;2022-07-03T00:42:22;28.90;37.60
45843;DHT22;31563;51.744;8.252;2022-07-03T00:44:52;28.90;37.60
45843;DHT22;31563;51.744;8.252;2022-07-03T00:47:22;28.90;37.60
45843;DHT22;31563;51.744;8.252;2022-07-03T00:49:53;28.80;37.70
45843;DHT22;31563;51.744;8.252;2022-07-03T00:52:22;28.80;37.70
45843;DHT22;31563;51.744;8.252;2022-07-03T00:54:52;28.80;37.70
45843;DHT22;31563;51.744;8.252;2022-07-03T00:57:22;28.80;37.80
45843;DHT22;31563;51.744;8.252;2022-07-03T00:59:50;28.80;37.90
45843;DHT22;31563;51.744;8.252;2022-07-03T01:02:44;28.70;37.80
45843;DHT22;31563;51.744;8.252;2022-07-03T01:05:19;28.70;37.80
45843;DHT22;31563;51.744;8.252;2022-07-03T01:08:00;28.70;38.00
45843;DHT22;31563;51.744;8.252;2022-07-03T01:10:43;28.70;38.00
45843;DHT22;31563;51.744;8.252;2022-07-03T01:13:17;28.60;38.00
45843;DHT22;31563;51.744;8.252;2022-07-03T01:15:52;28.60;38.10
45843;DHT22;31563;51.744;8.252;2022-07-03T01:18:40;28.60;38.10
45843;DHT22;31563;51.744;8.252;2022-07-03T01:21:10;28.60;38.20
45843;DHT22;31563;51.744;8.252;2022-07-03T01:26:55;28.50;38.20
45843;DHT22;31563;51.744;8.252;2022-07-03T01:29:29;28.40;38.40
45843;DHT22;31563;51.744;8.252;2022-07-03T01:32:00;28.40;38.40
45843;DHT22;31563;51.744;8.252;2022-07-03T01:34:33;28.40;38.40
45843;DHT22;31563;51.744;8.252;2022-07-03T01:37:02;28.40;38.40
45843;DHT22;31563;51.744;8.252;2022-07-03T01:39:31;28.40;38.60
45843;DHT22;31563;51.744;8.252;2022-07-03T01:42:23;28.40;38.60
45843;DHT22;31563;51.744;8.252;2022-07-03T01:44:52;28.30;38.60
45843;DHT22;31563;51.744;8.252;2022-07-03T01:47:22;28.30;38.60
45843;DHT22;31563;51.744;8.252;2022-07-03T01:49:55;28.30;38.70
45843;DHT22;31563;51.744;8.252;2022-07-03T01:52:25;28.30;38.70
45843;DHT22;31563;51.744;8.252;2022-07-03T01:55:12;28.30;38.70
45843;DHT22;31563;51.744;8.252;2022-07-03T01:57:44;28.20;38.70
45843;DHT22;31563;51.744;8.252;2022-07-03T02:00:16;28.20;38.70
45843;DHT22;31563;51.744;8.252;2022-07-03T02:02:53;28.20;38.70
45843;DHT22;31563;51.744;8.252;2022-07-03T02:05:29;28.20;38.80
45843;DHT22;31563;51.744;8.252;2022-07-03T02:08:06;28.10;38.70
45843;DHT22;31563;51.744;8.252;2022-07-03T02:10:38;28.10;38.70
45843;DHT22;31563;51.744;8.252;2022-07-03T02:13:16;28.10;38.90
45843;DHT22;31563;51.744;8.252;2022-07-03T02:15:45;28.00;38.80
45843;DHT22;31563;51.744;8.252;2022-07-03T02:18:25;28.00;38.80
45843;DHT22;31563;51.744;8.252;2022-07-03T02:21:03;28.00;38.80
45843;DHT22;31563;51.744;8.252;2022-07-03T02:23:32;28.00;38.90
45843;DHT22;31563;51.744;8.252;2022-07-03T02:26:06;27.90;38.90
45843;DHT22;31563;51.744;8.252;2022-07-03T02:28:53;27.90;39.00
45843;DHT22;31563;51.744;8.252;2022-07-03T02:31:24;27.80;38.90
45843;DHT22;31563;51.744;8.252;2022-07-03T02:33:57;27.80;39.00
45843;DHT22;31563;51.744;8.252;2022-07-03T02:36:28;27.80;39.00
45843;DHT22;31563;51.744;8.252;2022-07-03T02:38:57;27.80;39.10
45843;DHT22;31563;51.744;8.252;2022-07-03T02:41:37;27.80;39.10
45843;DHT22;31563;51.744;8.252;2022-07-03T02:44:16;27.70;39.10
45843;DHT22;31563;51.744;8.252;2022-07-03T02:46:54;27.70;39.20
45843;DHT22;31563;51.744;8.252;2022-07-03T02:49:50;27.70;39.30
45843;DHT22;31563;51.744;8.252;2022-07-03T02:52:27;27.70;39.20
45843;DHT22;31563;51.744;8.252;2022-07-03T02:55:00;27.60;39.30
45843;DHT22;31563;51.744;8.252;2022-07-03T02:57:37;27.60;39.40
45843;DHT22;31563;51.744;8.252;2022-07-03T03:00:10;27.60;39.40
45843;DHT22;31563;51.744;8.252;2022-07-03T03:02:53;27.50;39.50
45843;DHT22;31563;51.744;8.252;2022-07-03T03:05:28;27.30;40.20
45843;DHT22;31563;51.744;8.252;2022-07-03T03:08:16;27.30;41.20
45843;DHT22;31563;51.744;8.252;2022-07-03T03:10:47;27.30;41.60
45843;DHT22;31563;51.744;8.252;2022-07-03T03:13:17;27.40;41.90
45843;DHT22;31563;51.744;8.252;2022-07-03T03:15:58;27.50;42.30
45843;DHT22;31563;51.744;8.252;2022-07-03T03:18:29;27.50;42.10
45843;DHT22;31563;51.744;8.252;2022-07-03T03:20:59;27.60;42.40
45843;DHT22;31563;51.744;8.252;2022-07-03T03:23:35;27.60;42.50
45843;DHT22;31563;51.744;8.252;2022-07-03T03:26:05;27.50;42.50
45843;DHT22;31563;51.744;8.252;2022-07-03T03:28:34;27.50;42.50
45843;DHT22;31563;51.744;8.252;2022-07-03T03:31:03;27.50;42.80
45843;DHT22;31563;51.744;8.252;2022-07-03T03:33:38;27.40;42.70
45843;DHT22;31563;51.744;8.252;2022-07-03T03:36:08;27.40;42.90
45843;DHT22;31563;51.744;8.252;2022-07-03T03:38:37;27.40;42.90
45843;DHT22;31563;51.744;8.252;2022-07-03T03:41:06;27.40;43.00
45843;DHT22;31563;51.744;8.252;2022-07-03T03:43:40;27.30;43.00
45843;DHT22;31563;51.744;8.252;2022-07-03T03:46:10;27.30;43.20
45843;DHT22;31563;51.744;8.252;2022-07-03T03:48:39;27.30;43.00
45843;DHT22;31563;51.744;8.252;2022-07-03T03:51:07;27.20;43.10
45843;DHT22;31563;51.744;8.252;2022-07-03T03:53:35;27.10;43.20
45843;DHT22;31563;51.744;8.252;2022-07-03T03:56:06;27.10;43.40
45843;DHT22;31563;51.744;8.252;2022-07-03T03:58:37;27.10;43.20
45843;DHT22;31563;51.744;8.252;2022-07-03T04:01:07;27.00;43.40
45843;DHT22;31563;51.744;8.252;2022-07-03T04:03:37;27.10;43.70
45843;DHT22;31563;51.744;8.252;2022-07-03T04:06:06;27.00;43.50
45843;DHT22;31563;51.744;8.252;2022-07-03T04:08:34;27.00;43.50
45843;DHT22;31563;51.744;8.252;2022-07-03T04:11:02;27.00;43.50
45843;DHT22;31563;51.744;8.252;2022-07-03T04:13:30;27.00;43.30
45843;DHT22;31563;51.744;8.252;2022-07-03T04:15:58;26.90;43.60
45843;DHT22;31563;51.744;8.252;2022-07-03T04:18:26;26.90;43.70
45843;DHT22;31563;51.744;8.252;2022-07-03T04:21:00;26.90;44.00
45843;DHT22;31563;51.744;8.252;2022-07-03T04:23:28;26.90;43.90
45843;DHT22;31563;51.744;8.252;2022-07-03T04:26:02;26.90;43.90
45843;DHT22;31563;51.744;8.252;2022-07-03T04:28:31;26.90;43.90
45843;DHT22;31563;51.744;8.252;2022-07-03T04:30:59;27.00;44.00
45843;DHT22;31563;51.744;8.252;2022-07-03T04:33:28;26.90;43.70
45843;DHT22;31563;51.744;8.252;2022-07-03T04:35:56;26.90;43.80
45843;DHT22;31563;51.744;8.252;2022-07-03T04:38:25;26.90;43.80
45843;DHT22;31563;51.744;8.252;2022-07-03T04:40:53;26.80;43.80
45843;DHT22;31563;51.744;8.252;2022-07-03T04:43:21;26.80;44.00
45843;DHT22;31563;51.744;8.252;2022-07-03T04:45:50;26.80;44.20
45843;DHT22;31563;51.744;8.252;2022-07-03T04:48:18;26.90;44.20
45843;DHT22;31563;51.744;8.252;2022-07-03T04:50:46;26.90;44.00
45843;DHT22;31563;51.744;8.252;2022-07-03T04:53:14;26.90;43.50
45843;DHT22;31563;51.744;8.252;2022-07-03T04:55:44;26.80;43.70
45843;DHT22;31563;51.744;8.252;2022-07-03T04:58:12;26.70;43.90
45843;DHT22;31563;51.744;8.252;2022-07-03T05:00:40;26.60;43.80
45843;DHT22;31563;51.744;8.252;2022-07-03T05:03:10;26.60;44.10
45843;DHT22;31563;51.744;8.252;2022-07-03T05:05:38;26.60;44.20
45843;DHT22;31563;51.744;8.252;2022-07-03T05:08:07;26.60;44.10
45843;DHT22;31563;51.744;8.252;2022-07-03T05:10:37;26.60;44.40
45843;DHT22;31563;51.744;8.252;2022-07-03T05:13:07;26.50;44.20
45843;DHT22;31563;51.744;8.252;2022-07-03T05:15:35;26.60;44.50
45843;DHT22;31563;51.744;8.252;2022-07-03T05:18:03;26.70;44.40
45843;DHT22;31563;51.744;8.252;2022-07-03T05:20:31;26.80;44.30
45843;DHT22;31563;51.744;8.252;2022-07-03T05:23:01;26.80;44.10
45843;DHT22;31563;51.744;8.252;2022-07-03T05:25:30;26.90;44.20
45843;DHT22;31563;51.744;8.252;2022-07-03T05:28:00;26.90;44.00
45843;DHT22;31563;51.744;8.252;2022-07-03T05:30:29;26.90;43.70
45843;DHT22;31563;51.744;8.252;2022-07-03T05:32:57;26.90;43.10
45843;DHT22;31563;51.744;8.252;2022-07-03T05:35:25;26.80;43.40
45843;DHT22;31563;51.744;8.252;2022-07-03T05:37:54;26.80;44.10
45843;DHT22;31563;51.744;8.252;2022-07-03T05:40:22;26.80;44.00
45843;DHT22;31563;51.744;8.252;2022-07-03T05:42:49;26.90;44.10
45843;DHT22;31563;51.744;8.252;2022-07-03T05:45:17;26.90;44.00
45843;DHT22;31563;51.744;8.252;2022-07-03T05:47:47;26.80;44.10
45843;DHT22;31563;51.744;8.252;2022-07-03T05:50:15;26.90;44.50
45843;DHT22;31563;51.744;8.252;2022-07-03T05:52:43;26.80;44.10
45843;DHT22;31563;51.744;8.252;2022-07-03T05:55:11;27.00;44.50
45843;DHT22;31563;51.744;8.252;2022-07-03T05:57:40;27.00;44.40
45843;DHT22;31563;51.744;8.252;2022-07-03T06:00:09;27.20;44.20
45843;DHT22;31563;51.744;8.252;2022-07-03T06:02:37;27.20;44.10
45843;DHT22;31563;51.744;8.252;2022-07-03T06:05:08;27.10;43.80
45843;DHT22;31563;51.744;8.252;2022-07-03T06:07:36;27.20;44.10
45843;DHT22;31563;51.744;8.252;2022-07-03T06:10:05;27.30;44.10
45843;DHT22;31563;51.744;8.252;2022-07-03T06:12:33;27.40;44.00
45843;DHT22;31563;51.744;8.252;2022-07-03T06:15:01;27.30;43.60
45843;DHT22;31563;51.744;8.252;2022-07-03T06:17:29;27.00;43.50
45843;DHT22;31563;51.744;8.252;2022-07-03T06:19:57;27.00;44.10
45843;DHT22;31563;51.744;8.252;2022-07-03T06:22:27;26.90;44.20
45843;DHT22;31563;51.744;8.252;2022-07-03T06:24:55;27.10;44.40
45843;DHT22;31563;51.744;8.252;2022-07-03T06:27:23;27.20;44.00
45843;DHT22;31563;51.744;8.252;2022-07-03T06:29:51;27.40;43.90
45843;DHT22;31563;51.744;8.252;2022-07-03T06:32:19;27.50;43.40
45843;DHT22;31563;51.744;8.252;2022-07-03T06:34:48;27.30;43.10
45843;DHT22;31563;51.744;8.252;2022-07-03T06:37:16;27.20;43.90
45843;DHT22;31563;51.744;8.252;2022-07-03T06:39:45;27.20;43.20
45843;DHT22;31563;51.744;8.252;2022-07-03T06:42:14;27.20;43.20
45843;DHT22;31563;51.744;8.252;2022-07-03T06:44:42;27.30;43.20
45843;DHT22;31563;51.744;8.252;2022-07-03T06:47:17;27.30;43.20
45843;DHT22;31563;51.744;8.252;2022-07-03T06:49:46;27.40;43.20
45843;DHT22;31563;51.744;8.252;2022-07-03T06:52:14;27.30;43.10
45843;DHT22;31563;51.744;8.252;2022-07-03T06:54:42;27.40;43.10
45843;DHT22;31563;51.744;8.252;2022-07-03T06:57:13;27.50;43.10
45843;DHT22;31563;51.744;8.252;2022-07-03T06:59:41;27.60;43.00
45843;DHT22;31563;51.744;8.252;2022-07-03T07:02:10;27.70;42.90
45843;DHT22;31563;51.744;8.252;2022-07-03T07:04:38;27.70;42.80
45843;DHT22;31563;51.744;8.252;2022-07-03T07:07:06;27.80;42.90
45843;DHT22;31563;51.744;8.252;2022-07-03T07:09:34;27.80;43.00
45843;DHT22;31563;51.744;8.252;2022-07-03T07:12:03;27.80;42.00
45843;DHT22;31563;51.744;8.252;2022-07-03T07:14:33;27.80;42.20
45843;DHT22;31563;51.744;8.252;2022-07-03T07:17:01;27.90;42.20
45843;DHT22;31563;51.744;8.252;2022-07-03T07:19:30;28.00;42.10
45843;DHT22;31563;51.744;8.252;2022-07-03T07:21:58;28.00;41.20
45843;DHT22;31563;51.744;8.252;2022-07-03T07:24:27;27.90;41.10
45843;DHT22;31563;51.744;8.252;2022-07-03T07:26:55;27.90;41.10
45843;DHT22;31563;51.744;8.252;2022-07-03T07:29:23;28.10;41.30
45843;DHT22;31563;51.744;8.252;2022-07-03T07:31:53;28.10;40.80
45843;DHT22;31563;51.744;8.252;2022-07-03T07:34:21;28.10;40.40
45843;DHT22;31563;51.744;8.252;2022-07-03T07:36:49;27.90;40.00
45843;DHT22;31563;51.744;8.252;2022-07-03T07:39:17;28.00;40.40
45843;DHT22;31563;51.744;8.252;2022-07-03T07:41:46;28.10;39.80
45843;DHT22;31563;51.744;8.252;2022-07-03T07:44:14;28.20;40.50
45843;DHT22;31563;51.744;8.252;2022-07-03T07:46:45;28.30;39.90
45843;DHT22;31563;51.744;8.252;2022-07-03T07:49:15;28.50;40.00
45843;DHT22;31563;51.744;8.252;2022-07-03T07:51:43;28.70;39.80
45843;DHT22;31563;51.744;8.252;2022-07-03T07:54:11;28.90;39.70
45843;DHT22;31563;51.744;8.252;2022-07-03T07:56:39;29.10;39.50
45843;DHT22;31563;51.744;8.252;2022-07-03T07:59:08;29.10;39.20
45843;DHT22;31563;51.744;8.252;2022-07-03T08:01:36;29.10;38.30
45843;DHT22;31563;51.744;8.252;2022-07-03T08:04:23;29.00;38.40
45843;DHT22;31563;51.744;8.252;2022-07-03T08:07:20;28.90;38.80
45843;DHT22;31563;51.744;8.252;2022-07-03T08:09:48;29.10;38.90
45843;DHT22;31563;51.744;8.252;2022-07-03T08:12:20;29.30;38.40
45843;DHT22;31563;51.744;8.252;2022-07-03T08:14:48;29.30;38.30
45843;DHT22;31563;51.744;8.252;2022-07-03T08:17:16;29.40;38.00
45843;DHT22;31563;51.744;8.252;2022-07-03T08:19:45;29.40;37.90
45843;DHT22;31563;51.744;8.252;2022-07-03T08:22:14;29.50;37.70
45843;DHT22;31563;51.744;8.252;2022-07-03T08:24:42;29.50;37.70
45843;DHT22;31563;51.744;8.252;2022-07-03T08:27:11;29.60;37.40
45843;DHT22;31563;51.744;8.252;2022-07-03T08:29:39;29.50;37.40
45843;DHT22;31563;51.744;8.252;2022-07-03T08:32:08;29.60;37.10
45843;DHT22;31563;51.744;8.252;2022-07-03T08:34:36;29.70;37.20
45843;DHT22;31563;51.744;8.252;2022-07-03T08:37:06;29.80;36.90
45843;DHT22;31563;51.744;8.252;2022-07-03T08:39:33;29.90;36.90
45843;DHT22;31563;51.744;8.252;2022-07-03T08:42:02;30.10;36.60
45843;DHT22;31563;51.744;8.252;2022-07-03T08:44:32;30.00;35.80
45843;DHT22;31563;51.744;8.252;2022-07-03T08:47:03;29.90;36.10
45843;DHT22;31563;51.744;8.252;2022-07-03T08:49:32;29.90;36.20
45843;DHT22;31563;51.744;8.252;2022-07-03T08:52:00;30.00;36.10
45843;DHT22;31563;51.744;8.252;2022-07-03T08:54:30;29.90;35.60
45843;DHT22;31563;51.744;8.252;2022-07-03T08:57:00;29.90;35.70
45843;DHT22;31563;51.744;8.252;2022-07-03T08:59:32;30.10;36.10
45843;DHT22;31563;51.744;8.252;2022-07-03T09:02:03;30.20;35.70
45843;DHT22;31563;51.744;8.252;2022-07-03T09:04:32;30.40;35.90
45843;DHT22;31563;51.744;8.252;2022-07-03T09:07:01;30.50;36.10
45843;DHT22;31563;51.744;8.252;2022-07-03T09:09:30;30.60;35.80
45843;DHT22;31563;51.744;8.252;2022-07-03T09:12:00;30.70;35.90
45843;DHT22;31563;51.744;8.252;2022-07-03T09:14:28;30.90;36.00
45843;DHT22;31563;51.744;8.252;2022-07-03T09:16:57;31.00;35.60
45843;DHT22;31563;51.744;8.252;2022-07-03T09:19:39;31.00;35.50
45843;DHT22;31563;51.744;8.252;2022-07-03T09:22:19;31.10;35.40
45843;DHT22;31563;51.744;8.252;2022-07-03T09:24:51;31.30;35.40
45843;DHT22;31563;51.744;8.252;2022-07-03T09:27:20;31.50;35.10
45843;DHT22;31563;51.744;8.252;2022-07-03T09:29:57;31.30;34.70
45843;DHT22;31563;51.744;8.252;2022-07-03T09:32:31;31.20;34.60
45843;DHT22;31563;51.744;8.252;2022-07-03T09:35:17;31.10;34.10
45843;DHT22;31563;51.744;8.252;2022-07-03T09:37:54;31.20;34.80
45843;DHT22;31563;51.744;8.252;2022-07-03T09:40:24;31.50;34.50
45843;DHT22;31563;51.744;8.252;2022-07-03T09:43:00;31.50;34.30
45843;DHT22;31563;51.744;8.252;2022-07-03T09:45:49;31.60;34.40
45843;DHT22;31563;51.744;8.252;2022-07-03T09:48:25;31.70;34.10
45843;DHT22;31563;51.744;8.252;2022-07-03T09:53:55;31.80;33.70
45843;DHT22;31563;51.744;8.252;2022-07-03T09:56:27;32.00;34.30
45843;DHT22;31563;51.744;8.252;2022-07-03T09:59:05;32.20;33.90
45843;DHT22;31563;51.744;8.252;2022-07-03T10:01:35;32.20;33.90
45843;DHT22;31563;51.744;8.252;2022-07-03T10:04:12;32.30;33.70
45843;DHT22;31563;51.744;8.252;2022-07-03T10:06:54;32.50;33.10
45843;DHT22;31563;51.744;8.252;2022-07-03T10:09:24;32.60;33.30
45843;DHT22;31563;51.744;8.252;2022-07-03T10:11:55;32.80;33.50
45843;DHT22;31563;51.744;8.252;2022-07-03T10:14:25;33.10;33.50
45843;DHT22;31563;51.744;8.252;2022-07-03T10:16:54;33.20;31.80
45843;DHT22;31563;51.744;8.252;2022-07-03T10:19:26;33.10;31.90
45843;DHT22;31563;51.744;8.252;2022-07-03T10:21:56;33.10;32.10
45843;DHT22;31563;51.744;8.252;2022-07-03T10:24:26;33.00;31.80
45843;DHT22;31563;51.744;8.252;2022-07-03T10:26:57;32.70;31.60
45843;DHT22;31563;51.744;8.252;2022-07-03T10:29:27;32.30;31.10
45843;DHT22;31563;51.744;8.252;2022-07-03T10:31:56;32.00;31.30
45843;DHT22;31563;51.744;8.252;2022-07-03T10:34:26;32.30;31.80
45843;DHT22;31563;51.744;8.252;2022-07-03T10:36:58;32.60;31.70
45843;DHT22;31563;51.744;8.252;2022-07-03T10:39:40;32.90;31.60
45843;DHT22;31563;51.744;8.252;2022-07-03T10:42:13;33.00;30.80
45843;DHT22;31563;51.744;8.252;2022-07-03T10:45:06;32.80;30.50
45843;DHT22;31563;51.744;8.252;2022-07-03T10:47:39;33.10;30.60
45843;DHT22;31563;51.744;8.252;2022-07-03T10:50:09;33.20;29.90
45843;DHT22;31563;51.744;8.252;2022-07-03T10:52:39;33.20;29.90
45843;DHT22;31563;51.744;8.252;2022-07-03T10:55:08;33.40;30.00
45843;DHT22;31563;51.744;8.252;2022-07-03T10:57:40;33.40;29.90
45843;DHT22;31563;51.744;8.252;2022-07-03T11:00:18;33.50;29.50
45843;DHT22;31563;51.744;8.252;2022-07-03T11:02:48;33.50;29.70
45843;DHT22;31563;51.744;8.252;2022-07-03T11:05:19;33.70;30.30
45843;DHT22;31563;51.744;8.252;2022-07-03T11:08:17;34.00;31.20
45843;DHT22;31563;51.744;8.252;2022-07-03T11:10:45;34.30;30.40
45843;DHT22;31563;51.744;8.252;2022-07-03T11:16:45;34.50;29.60
45843;DHT22;31563;51.744;8.252;2022-07-03T11:19:14;34.60;28.90
45843;DHT22;31563;51.744;8.252;2022-07-03T11:21:48;34.70;29.20
45843;DHT22;31563;51.744;8.252;2022-07-03T11:24:37;34.90;29.30
45843;DHT22;31563;51.744;8.252;2022-07-03T11:27:20;34.90;28.80
45843;DHT22;31563;51.744;8.252;2022-07-03T11:29:58;34.80;28.50
45843;DHT22;31563;51.744;8.252;2022-07-03T11:32:59;34.70;28.40
45843;DHT22;31563;51.744;8.252;2022-07-03T11:35:45;34.60;28.30
45843;DHT22;31563;51.744;8.252;2022-07-03T11:38:18;34.70;28.60
45843;DHT22;31563;51.744;8.252;2022-07-03T11:40:48;34.80;28.40
45843;DHT22;31563;51.744;8.252;2022-07-03T11:43:17;34.80;28.20
45843;DHT22;31563;51.744;8.252;2022-07-03T11:45:48;34.90;28.50
45843;DHT22;31563;51.744;8.252;2022-07-03T11:48:18;35.10;28.60
45843;DHT22;31563;51.744;8.252;2022-07-03T11:50:47;35.30;28.70
45843;DHT22;31563;51.744;8.252;2022-07-03T11:53:24;35.20;28.40
45843;DHT22;31563;51.744;8.252;2022-07-03T11:55:56;35.10;28.60
45843;DHT22;31563;51.744;8.252;2022-07-03T11:58:25;35.30;28.80
45843;DHT22;31563;51.744;8.252;2022-07-03T12:00:55;35.30;28.50
45843;DHT22;31563;51.744;8.252;2022-07-03T12:03:25;35.30;29.10
45843;DHT22;31563;51.744;8.252;2022-07-03T12:05:54;35.30;29.00
45843;DHT22;31563;51.744;8.252;2022-07-03T12:08:23;35.50;29.50
45843;DHT22;31563;51.744;8.252;2022-07-03T12:10:55;35.70;29.50
45843;DHT22;31563;51.744;8.252;2022-07-03T12:13:26;35.70;29.20
45843;DHT22;31563;51.744;8.252;2022-07-03T12:16:00;35.30;29.10
45843;DHT22;31563;51.744;8.252;2022-07-03T12:18:40;35.20;30.10
45843;DHT22;31563;51.744;8.252;2022-07-03T12:21:08;35.50;30.20
45843;DHT22;31563;51.744;8.252;2022-07-03T12:23:40;35.80;30.20
45843;DHT22;31563;51.744;8.252;2022-07-03T12:26:08;35.90;30.00
45843;DHT22;31563;51.744;8.252;2022-07-03T12:28:36;36.00;30.30
45843;DHT22;31563;51.744;8.252;2022-07-03T12:31:06;36.00;30.30
45843;DHT22;31563;51.744;8.252;2022-07-03T12:33:34;36.10;30.30
45843;DHT22;31563;51.744;8.252;2022-07-03T12:36:03;36.40;30.80
45843;DHT22;31563;51.744;8.252;2022-07-03T12:38:31;37.30;30.30
45843;DHT22;31563;51.744;8.252;2022-07-03T12:41:03;38.70;30.00
45843;DHT22;31563;51.744;8.252;2022-07-03T12:43:38;39.90;29.10
45843;DHT22;31563;51.744;8.252;2022-07-03T12:46:21;39.30;27.20
45843;DHT22;31563;51.744;8.252;2022-07-03T12:48:51;38.70;27.20
45843;DHT22;31563;51.744;8.252;2022-07-03T12:51:41;37.90;27.20
45843;DHT22;31563;51.744;8.252;2022-07-03T12:54:11;37.60;27.50
45843;DHT22;31563;51.744;8.252;2022-07-03T12:56:41;37.30;27.80
45843;DHT22;31563;51.744;8.252;2022-07-03T12:59:24;37.20;28.30
45843;DHT22;31563;51.744;8.252;2022-07-03T13:02:04;38.40;28.80
45843;DHT22;31563;51.744;8.252;2022-07-03T13:04:33;38.80;27.20
45843;DHT22;31563;51.744;8.252;2022-07-03T13:07:04;39.20;27.70
45843;DHT22;31563;51.744;8.252;2022-07-03T13:09:33;40.20;27.70
45843;DHT22;31563;51.744;8.252;2022-07-03T13:12:02;40.90;27.00
45843;DHT22;31563;51.744;8.252;2022-07-03T13:14:30;41.40;26.40
45843;DHT22;31563;51.744;8.252;2022-07-03T13:16:59;41.60;26.10
45843;DHT22;31563;51.744;8.252;2022-07-03T13:19:29;42.00;26.20
45843;DHT22;31563;51.744;8.252;2022-07-03T13:21:57;42.10;25.50
45843;DHT22;31563;51.744;8.252;2022-07-03T13:24:26;41.40;25.10
45843;DHT22;31563;51.744;8.252;2022-07-03T13:26:54;41.20;25.80
45843;DHT22;31563;51.744;8.252;2022-07-03T13:29:25;40.80;26.00
45843;DHT22;31563;51.744;8.252;2022-07-03T13:31:53;40.50;25.90
45843;DHT22;31563;51.744;8.252;2022-07-03T13:34:22;39.90;26.10
45843;DHT22;31563;51.744;8.252;2022-07-03T13:36:51;39.30;26.60
45843;DHT22;31563;51.744;8.252;2022-07-03T13:39:19;38.90;27.20
45843;DHT22;31563;51.744;8.252;2022-07-03T13:41:48;38.90;27.50
45843;DHT22;31563;51.744;8.252;2022-07-03T13:44:16;39.00;27.30
45843;DHT22;31563;51.744;8.252;2022-07-03T13:46:44;38.90;27.00
45843;DHT22;31563;51.744;8.252;2022-07-03T13:49:17;38.60;27.60
45843;DHT22;31563;51.744;8.252;2022-07-03T13:51:46;38.70;27.70
45843;DHT22;31563;51.744;8.252;2022-07-03T13:54:15;38.90;27.80
45843;DHT22;31563;51.744;8.252;2022-07-03T13:56:44;39.10;27.70
45843;DHT22;31563;51.744;8.252;2022-07-03T13:59:12;39.20;27.60
45843;DHT22;31563;51.744;8.252;2022-07-03T14:01:40;38.90;27.40
45843;DHT22;31563;51.744;8.252;2022-07-03T14:04:09;39.00;27.50
45843;DHT22;31563;51.744;8.252;2022-07-03T14:06:37;39.00;27.90
45843;DHT22;31563;51.744;8.252;2022-07-03T14:09:05;39.10;27.90
45843;DHT22;31563;51.744;8.252;2022-07-03T14:11:35;39.00;28.10
45843;DHT22;31563;51.744;8.252;2022-07-03T14:14:03;38.60;28.50
45843;DHT22;31563;51.744;8.252;2022-07-03T14:16:31;38.50;28.80
45843;DHT22;31563;51.744;8.252;2022-07-03T14:18:59;38.50;29.10
45843;DHT22;31563;51.744;8.252;2022-07-03T14:21:30;38.10;28.20
45843;DHT22;31563;51.744;8.252;2022-07-03T14:23:58;37.90;29.00
45843;DHT22;31563;51.744;8.252;2022-07-03T14:26:26;37.90;28.90
45843;DHT22;31563;51.744;8.252;2022-07-03T14:29:14;37.70;28.90
45843;DHT22;31563;51.744;8.252;2022-07-03T14:31:59;37.90;29.10
45843;DHT22;31563;51.744;8.252;2022-07-03T14:34:45;37.60;28.60
45843;DHT22;31563;51.744;8.252;2022-07-03T14:37:17;37.80;29.30
45843;DHT22;31563;51.744;8.252;2022-07-03T14:39:46;37.70;28.80
45843;DHT22;31563;51.744;8.252;2022-07-03T14:42:14;37.70;28.80
45843;DHT22;31563;51.744;8.252;2022-07-03T14:44:44;37.70;28.40
45843;DHT22;31563;51.744;8.252;2022-07-03T14:47:13;37.90;29.40
45843;DHT22;31563;51.744;8.252;2022-07-03T14:49:41;37.60;28.50
45843;DHT22;31563;51.744;8.252;2022-07-03T14:52:10;37.90;29.10
45843;DHT22;31563;51.744;8.252;2022-07-03T14:54:38;38.10;29.00
45843;DHT22;31563;51.744;8.252;2022-07-03T14:57:23;38.40;29.20
45843;DHT22;31563;51.744;8.252;2022-07-03T15:00:03;38.40;28.90
45843;DHT22;31563;51.744;8.252;2022-07-03T15:02:45;38.20;28.60
45843;DHT22;31563;51.744;8.252;2022-07-03T15:05:16;38.10;29.10
45843;DHT22;31563;51.744;8.252;2022-07-03T15:07:47;37.90;29.00
45843;DHT22;31563;51.744;8.252;2022-07-03T15:10:19;37.60;29.30
45843;DHT22;31563;51.744;8.252;2022-07-03T15:12:51;37.80;29.40
45843;DHT22;31563;51.744;8.252;2022-07-03T15:15:21;37.90;28.80
45843;DHT22;31563;51.744;8.252;2022-07-03T15:17:51;37.90;28.40
45843;DHT22;31563;51.744;8.252;2022-07-03T15:20:20;37.80;27.80
45843;DHT22;31563;51.744;8.252;2022-07-03T15:22:48;37.70;27.80
45843;DHT22;31563;51.744;8.252;2022-07-03T15:25:18;37.70;27.50
45843;DHT22;31563;51.744;8.252;2022-07-03T15:27:51;37.80;27.60
45843;DHT22;31563;51.744;8.252;2022-07-03T15:30:21;37.90;27.70
45843;DHT22;31563;51.744;8.252;2022-07-03T15:32:51;37.80;27.40
45843;DHT22;31563;51.744;8.252;2022-07-03T15:35:20;37.70;27.20
45843;DHT22;31563;51.744;8.252;2022-07-03T15:38:09;37.80;27.70
45843;DHT22;31563;51.744;8.252;2022-07-03T15:40:46;37.80;27.70
45843;DHT22;31563;51.744;8.252;2022-07-03T15:43:30;38.00;27.50
45843;DHT22;31563;51.744;8.252;2022-07-03T15:46:16;38.10;27.40
45843;DHT22;31563;51.744;8.252;2022-07-03T15:48:55;38.20;27.60
45843;DHT22;31563;51.744;8.252;2022-07-03T15:51:35;38.30;27.70
45843;DHT22;31563;51.744;8.252;2022-07-03T15:54:10;38.30;27.70
45843;DHT22;31563;51.744;8.252;2022-07-03T15:56:42;38.20;27.50
45843;DHT22;31563;51.744;8.252;2022-07-03T15:59:13;37.90;27.60
45843;DHT22;31563;51.744;8.252;2022-07-03T16:01:49;37.70;27.80
45843;DHT22;31563;51.744;8.252;2022-07-03T16:04:48;37.70;27.90
45843;DHT22;31563;51.744;8.252;2022-07-03T16:07:18;37.70;28.10